Etusivu
METAR-TAF:

METAR-TAF

Lentoasemat :

Bartlesville, Oklahoma, Yhdysvallat

Leveyspiiri: 36-46-06N, Pituuspiiri: 096-01-34W, korkeus merenpinnasta: 217 m

Tämänhetkinen sää

Tämä raportti tehtiin 42 minuuttia sitten, kello 23.53 UTC
Tuuli 11 kn etelästä puuskistuen 19 kn:hen
Lämpötila 32°C
Kosteus 52%
Ilmanpaine 1009 hPa
Näkyvyys: 16.1 km
selkeää

METAR: KBVO 162353Z AUTO 18011G19KT 10SM CLR 32/21 A2979 RMK AO2 SLP077 T03220206 10339 20317 55004

Aika: 19:35 (00:35 UTC)

Sääennuste

Tämä raportti tehtiin 1 tunti ja 2 minuuttia sitten, kello 23.33 UTC
Ennuste voimassa 17. päivästä klo 00 UTC - 17. päivään klo 24 UTC
Tuuli 4 kn etelästä
Näkyvyys: 10 km
selkeää
From 17. päivästä klo 1500 UTC
Tuuli 14 kn etelästä puuskistuen 23 kn:hen
Näkyvyys: 10 km
Hajanaisia pilviä 5000 ft:n korkeudessa

TAF: KBVO 162333Z 1700/1724 17004KT P6SM SKC FM171500 17014G23KT P6SM SCT050

Säähavainnot ja -ennusteet yli 4000 lentoasemalta (METAR- ja TAF-raportit).

Käytössä olevat sääasemat on merkitty karttaan keltaisilla ja punaisilla pisteillä.

Aseta hiiri pisteen päälle nähdäksesi sääaseman nimen.

Klikkaa sitten nähdäksesi säähavainnot ja -ennusteet.

Kartan vaihtaminen: klikkaa mustalla rastilla varustettuja vihreitä pisteitä, niin voit zoomata sisään; viivalla varustettua vihreää pistettä, niin voit zoomata ulos tai vihreitä nuolia, niin pääset viereisille kartoille.


METAR-TAF: